createdAt,value
2023-02-14T00:01:30.430Z,103760.44
2023-02-14T00:06:35.592Z,103759.38
2023-02-14T00:11:42.549Z,103762.72
2023-02-14T00:16:44.703Z,103758.94
2023-02-14T00:21:50.434Z,103756.06
2023-02-14T00:26:54.650Z,103757.53
2023-02-14T00:31:59.481Z,103752.03
2023-02-14T00:37:04.419Z,103748.34
2023-02-14T00:42:08.296Z,103751.63
2023-02-14T00:47:15.639Z,103743.69
2023-02-14T00:52:17.351Z,103750.72
2023-02-14T00:57:19.192Z,103750.63
2023-02-14T01:02:24.339Z,103733.69
2023-02-14T01:07:30.323Z,103739.00
2023-02-14T01:12:35.441Z,103740.78
2023-02-14T01:17:43.412Z,103725.72
2023-02-14T01:22:49.060Z,103733.63
2023-02-14T01:27:51.151Z,103733.56
2023-02-14T01:32:57.584Z,103724.56
2023-02-14T01:38:02.413Z,103728.06
2023-02-14T01:43:04.646Z,103725.34
2023-02-14T01:48:09.844Z,103720.91
2023-02-14T01:53:24.721Z,103719.09
2023-02-14T01:58:28.437Z,103711.13
2023-02-14T02:03:39.964Z,103712.81
2023-02-14T02:08:52.831Z,103703.94
2023-02-14T02:13:55.400Z,103689.03
2023-02-14T02:19:16.997Z,103696.94
2023-02-14T02:24:26.900Z,103693.56
2023-02-14T02:29:49.173Z,103689.22
2023-02-14T02:35:21.894Z,103691.09
2023-02-14T02:40:39.848Z,103694.59
2023-02-14T02:46:11.282Z,103686.63
2023-02-14T02:51:46.384Z,103689.44
2023-02-14T02:56:56.035Z,103693.03
2023-02-14T03:02:16.566Z,103693.13
2023-02-14T03:07:37.024Z,103698.50
2023-02-14T03:13:22.365Z,103694.09
2023-02-14T03:18:48.350Z,103692.47
2023-02-14T03:24:08.259Z,103682.69
2023-02-14T03:29:29.322Z,103681.06
2023-02-14T03:34:47.591Z,103666.41
2023-02-14T03:39:55.544Z,103663.13
2023-02-14T03:45:01.400Z,103665.91
2023-02-14T03:50:12.738Z,103659.13
2023-02-14T03:55:20.315Z,103655.94
2023-02-14T04:00:24.890Z,103657.84
2023-02-14T04:05:28.755Z,103650.47
2023-02-14T04:10:33.205Z,103645.06
2023-02-14T04:15:35.005Z,103645.81
2023-02-14T04:20:38.974Z,103636.09
2023-02-14T04:25:45.607Z,103641.41
2023-02-14T04:30:52.066Z,103634.38
2023-02-14T04:35:56.887Z,103629.13
2023-02-14T04:41:01.338Z,103620.91
2023-02-14T04:46:07.932Z,103624.22
2023-02-14T04:51:09.776Z,103623.03
2023-02-14T04:56:13.833Z,103623.44
2023-02-14T05:01:15.855Z,103617.66
2023-02-14T05:06:20.063Z,103612.75
2023-02-14T05:11:24.360Z,103612.28
2023-02-14T05:16:26.185Z,103606.00
2023-02-14T05:21:33.076Z,103605.59
2023-02-14T05:26:37.840Z,103603.84
2023-02-14T05:31:46.231Z,103601.22
2023-02-14T05:36:50.152Z,103602.34
2023-02-14T05:41:51.983Z,103592.91
2023-02-14T05:46:56.353Z,103585.91
2023-02-14T05:52:01.998Z,103590.41
2023-02-14T05:57:03.740Z,103592.81
2023-02-14T06:02:07.100Z,103599.41
2023-02-14T06:07:08.980Z,103594.28
2023-02-14T06:12:10.731Z,103594.47
2023-02-14T06:17:12.419Z,103592.06
2023-02-14T06:22:18.370Z,103590.88
2023-02-14T06:27:20.022Z,103595.63
2023-02-14T06:32:21.919Z,103595.06
2023-02-14T06:37:25.646Z,103599.59
2023-02-14T06:42:27.523Z,103600.44
2023-02-14T06:47:29.448Z,103602.38
2023-02-14T06:52:35.009Z,103604.06
2023-02-14T06:57:40.219Z,103603.03
2023-02-14T07:02:42.307Z,103590.50
2023-02-14T07:07:46.705Z,103606.44
2023-02-14T07:12:50.249Z,103609.19
2023-02-14T07:17:54.341Z,103596.91
2023-02-14T07:23:00.815Z,103601.16
2023-02-14T07:28:04.778Z,103587.72
2023-02-14T07:33:10.164Z,103585.75
2023-02-14T07:38:17.365Z,103580.25
2023-02-14T07:43:21.284Z,103590.66
2023-02-14T07:48:25.334Z,103584.97
2023-02-14T07:53:27.091Z,103585.59
2023-02-14T07:58:28.774Z,103587.81
2023-02-14T08:03:30.428Z,103589.00
2023-02-14T08:08:36.703Z,103585.88
2023-02-14T08:13:38.527Z,103595.94
2023-02-14T08:18:42.120Z,103584.94
2023-02-14T08:23:47.671Z,103579.91
2023-02-14T08:28:49.503Z,103589.94
2023-02-14T08:33:54.640Z,103590.13
2023-02-14T08:38:57.842Z,103591.16
2023-02-14T08:44:00.094Z,103578.50
2023-02-14T08:49:01.971Z,103589.66
2023-02-14T08:54:04.700Z,103583.94
2023-02-14T08:59:09.011Z,103583.66
2023-02-14T09:04:13.287Z,103579.00
2023-02-14T09:09:19.427Z,103580.28
2023-02-14T09:14:21.774Z,103571.97
2023-02-14T09:19:26.492Z,103576.72
2023-02-14T09:24:31.158Z,103571.06
2023-02-14T09:29:35.266Z,103574.28
2023-02-14T09:34:39.474Z,103575.56
2023-02-14T09:39:46.120Z,103576.00
2023-02-14T09:44:52.548Z,103583.19
2023-02-14T09:49:54.485Z,103574.94
2023-02-14T09:55:01.348Z,103569.13
2023-02-14T10:00:14.665Z,103573.81
2023-02-14T10:05:24.001Z,103578.91
2023-02-14T10:10:28.417Z,103575.00
2023-02-14T10:15:36.627Z,103573.84
2023-02-14T10:20:53.908Z,103571.47
2023-02-14T10:26:03.458Z,103570.28
2023-02-14T10:31:15.363Z,103573.88
2023-02-14T10:36:34.448Z,103576.16
2023-02-14T10:41:45.135Z,103579.66
2023-02-14T10:47:13.055Z,103569.13
2023-02-14T10:52:34.353Z,103561.69
2023-02-14T10:57:46.605Z,103555.09
2023-02-14T11:02:52.521Z,103547.56
2023-02-14T11:07:59.198Z,103542.84
2023-02-14T11:13:03.514Z,103529.63
2023-02-14T11:18:31.816Z,103526.56
2023-02-14T11:23:46.936Z,103522.06
2023-02-14T11:29:00.772Z,103518.50
2023-02-14T11:34:18.756Z,103517.25
2023-02-14T11:39:40.247Z,103505.69
2023-02-14T11:44:56.315Z,103503.84
2023-02-14T11:50:10.964Z,103485.78
2023-02-14T11:55:25.502Z,103487.81
2023-02-14T12:00:32.633Z,103474.13
2023-02-14T12:05:45.645Z,103469.81
2023-02-14T12:11:20.574Z,103476.03
2023-02-14T12:16:29.492Z,103452.84
2023-02-14T12:21:50.244Z,103447.59
2023-02-14T12:27:04.160Z,103437.28
2023-02-14T12:32:18.849Z,103438.19
2023-02-14T12:37:28.409Z,103426.53
2023-02-14T12:42:42.477Z,103421.72
2023-02-14T12:47:57.732Z,103419.53
2023-02-14T12:53:04.583Z,103421.16
2023-02-14T12:58:29.157Z,103408.50
2023-02-14T13:03:33.489Z,103412.59
2023-02-14T13:09:14.653Z,103400.06
2023-02-14T13:14:31.060Z,103389.91
2023-02-14T13:19:56.803Z,103386.53
2023-02-14T13:25:03.930Z,103378.72
2023-02-14T13:30:24.118Z,103370.78
2023-02-14T13:35:29.081Z,103356.59
2023-02-14T13:40:32.062Z,103353.53
2023-02-14T13:45:35.571Z,103343.78
2023-02-14T13:50:39.729Z,103342.31
2023-02-14T13:55:44.334Z,103348.25
2023-02-14T14:00:47.156Z,103349.78
2023-02-14T14:06:03.830Z,103351.66
2023-02-14T14:11:34.853Z,103336.06
2023-02-14T14:16:41.654Z,103336.06
2023-02-14T14:22:02.578Z,103321.22
2023-02-14T14:27:19.766Z,103327.78
2023-02-14T14:32:40.045Z,103321.66
2023-02-14T14:37:54.618Z,103310.38
2023-02-14T14:43:11.948Z,103306.28
2023-02-14T14:48:21.011Z,103303.91
2023-02-14T14:53:47.285Z,103301.41
2023-02-14T14:58:51.566Z,103296.81
2023-02-14T15:03:53.332Z,103304.81
2023-02-14T15:08:56.564Z,103292.06
2023-02-14T15:13:59.348Z,103284.81
2023-02-14T15:19:13.276Z,103279.06
2023-02-14T15:24:16.847Z,103286.19
2023-02-14T15:29:24.890Z,103280.81
2023-02-14T15:34:32.370Z,103278.44
2023-02-14T15:39:44.935Z,103264.59
2023-02-14T15:44:47.785Z,103263.03
2023-02-14T15:49:54.661Z,103259.25
2023-02-14T15:55:01.396Z,103258.00
2023-02-14T16:00:12.611Z,103260.88
2023-02-14T16:05:19.775Z,103263.03
2023-02-14T16:10:30.168Z,103258.56
2023-02-14T16:15:42.131Z,103253.19
2023-02-14T16:20:51.369Z,103256.22
2023-02-14T16:25:58.845Z,103256.41
2023-02-14T16:31:03.090Z,103259.53
2023-02-14T16:36:12.429Z,103257.00
2023-02-14T16:41:19.497Z,103260.53
2023-02-14T16:46:28.821Z,103256.09
2023-02-14T16:51:33.102Z,103246.53
2023-02-14T16:56:40.778Z,103244.03
2023-02-14T17:01:49.986Z,103254.31
2023-02-14T17:06:57.153Z,103250.88
2023-02-14T17:12:04.780Z,103248.66
2023-02-14T17:17:10.488Z,103253.34
2023-02-14T17:22:14.932Z,103252.78
2023-02-14T17:27:23.995Z,103254.75
2023-02-14T17:32:28.181Z,103253.97
2023-02-14T17:37:31.530Z,103247.13
2023-02-14T17:42:36.569Z,103253.53
2023-02-14T17:47:45.670Z,103256.53
2023-02-14T17:52:58.529Z,103260.09
2023-02-14T17:58:02.278Z,103260.38
2023-02-14T18:03:04.710Z,103254.22
2023-02-14T18:08:09.703Z,103258.28
2023-02-14T18:13:12.513Z,103251.63
2023-02-14T18:18:20.876Z,103251.59
2023-02-14T18:23:25.038Z,103243.44
2023-02-14T18:28:27.448Z,103253.94
2023-02-14T18:33:34.036Z,103237.91
2023-02-14T18:38:35.878Z,103241.19
2023-02-14T18:43:37.693Z,103234.69
2023-02-14T18:48:44.531Z,103231.56
2023-02-14T18:53:47.005Z,103212.16
2023-02-14T18:58:54.171Z,103214.56
2023-02-14T19:04:02.352Z,103214.06
2023-02-14T19:09:08.982Z,103208.16
2023-02-14T19:14:15.953Z,103199.25
2023-02-14T19:19:20.310Z,103193.63
2023-02-14T19:24:25.557Z,103187.41
2023-02-14T19:29:34.001Z,103182.53
2023-02-14T19:34:36.341Z,103183.41
2023-02-14T19:39:41.014Z,103182.78
2023-02-14T19:44:46.269Z,103170.56
2023-02-14T19:49:50.527Z,103165.09
2023-02-14T19:54:57.705Z,103170.63
2023-02-14T20:00:06.802Z,103167.81
2023-02-14T20:05:13.842Z,103169.94
2023-02-14T20:10:25.533Z,103159.00
2023-02-14T20:15:29.060Z,103149.50
2023-02-14T20:20:50.755Z,103147.03
2023-02-14T20:25:54.886Z,103152.81
2023-02-14T20:30:59.206Z,103148.25
2023-02-14T20:36:07.165Z,103139.72
2023-02-14T20:41:13.631Z,103142.59
2023-02-14T20:46:18.562Z,103137.09
2023-02-14T20:51:24.114Z,103148.00
2023-02-14T20:56:25.939Z,103140.38
2023-02-14T21:01:28.355Z,103136.34
2023-02-14T21:06:35.453Z,103142.19
2023-02-14T21:11:37.560Z,103132.84
2023-02-14T21:16:41.405Z,103131.59
2023-02-14T21:21:48.665Z,103135.03
2023-02-14T21:26:50.442Z,103130.22
2023-02-14T21:31:54.514Z,103119.22
2023-02-14T21:36:58.808Z,103110.19
2023-02-14T21:42:02.334Z,103114.16
2023-02-14T21:47:04.388Z,103108.59
2023-02-14T21:52:08.331Z,103108.03
2023-02-14T21:57:12.460Z,103101.13
2023-02-14T22:02:17.068Z,103101.41
2023-02-14T22:07:20.501Z,103102.72
2023-02-14T22:12:22.411Z,103098.81
2023-02-14T22:17:28.293Z,103092.81
2023-02-14T22:22:30.074Z,103092.97
2023-02-14T22:27:31.790Z,103093.31
2023-02-14T22:32:33.444Z,103088.25
2023-02-14T22:37:37.517Z,103077.13
2023-02-14T22:42:39.472Z,103085.47
2023-02-14T22:47:44.231Z,103082.97
2023-02-14T22:52:48.939Z,103074.81
2023-02-14T22:57:55.903Z,103076.06
2023-02-14T23:02:59.840Z,103077.22
2023-02-14T23:08:03.894Z,103071.34
2023-02-14T23:13:24.174Z,103072.41
2023-02-14T23:18:44.321Z,103060.50
2023-02-14T23:23:48.336Z,103059.63
2023-02-14T23:28:50.058Z,103052.84
2023-02-14T23:33:54.194Z,103059.41
2023-02-14T23:38:56.175Z,103046.47
2023-02-14T23:43:57.916Z,103040.34
2023-02-14T23:48:59.641Z,103037.34
2023-02-14T23:54:01.552Z,103042.03
2023-02-14T23:59:05.383Z,103038.03
